createdAt,value
2018-01-12T00:01:01.720Z,61.60
2018-01-12T00:03:28.731Z,59.37
2018-01-12T00:05:54.989Z,59.97
2018-01-12T00:08:22.100Z,58.63
2018-01-12T00:10:48.361Z,61.27
2018-01-12T00:13:15.404Z,59.07
2018-01-12T00:15:41.637Z,61.00
2018-01-12T00:18:08.658Z,56.77
2018-01-12T00:20:34.943Z,60.17
2018-01-12T00:23:01.286Z,65.30
2018-01-12T00:25:27.577Z,59.67
2018-01-12T00:27:54.633Z,59.27
2018-01-12T00:30:20.908Z,61.50
2018-01-12T00:32:47.323Z,58.87
2018-01-12T00:35:15.084Z,61.80
2018-01-12T00:37:41.357Z,62.17
2018-01-12T00:40:07.613Z,60.60
2018-01-12T00:42:34.659Z,57.77
2018-01-12T00:45:00.951Z,60.27
2018-01-12T00:47:27.194Z,59.70
2018-01-12T00:49:53.568Z,60.73
2018-01-12T00:52:19.840Z,61.87
2018-01-12T00:54:46.105Z,59.80
2018-01-12T00:57:13.141Z,61.00
2018-01-12T00:59:40.190Z,59.90
2018-01-12T01:02:06.468Z,58.80
2018-01-12T01:04:32.717Z,63.97
2018-01-12T01:06:58.970Z,62.10
2018-01-12T01:09:26.007Z,60.57
2018-01-12T01:11:52.278Z,57.40
2018-01-12T01:14:18.533Z,59.23
2018-01-12T01:16:44.816Z,61.63
2018-01-12T01:19:11.831Z,60.70
2018-01-12T01:21:38.091Z,59.70
2018-01-12T01:24:04.431Z,59.90
2018-01-12T01:26:31.435Z,58.50
2018-01-12T01:28:57.682Z,55.57
2018-01-12T01:31:24.671Z,58.17
2018-01-12T01:33:50.897Z,59.10
2018-01-12T01:36:18.219Z,55.53
2018-01-12T01:41:17.591Z,59.03
2018-01-12T01:43:43.863Z,57.30
2018-01-12T01:46:10.831Z,56.07
2018-01-12T01:48:40.116Z,56.70
2018-01-12T01:51:06.411Z,54.90
2018-01-12T01:53:32.680Z,58.13
2018-01-12T01:55:59.630Z,55.57
2018-01-12T01:58:25.889Z,58.03
2018-01-12T02:00:52.152Z,58.73
2018-01-12T02:03:18.460Z,55.53
2018-01-12T02:05:44.705Z,58.20
2018-01-12T02:08:10.950Z,54.67
2018-01-12T02:10:37.958Z,59.47
2018-01-12T02:13:04.234Z,55.37
2018-01-12T02:15:31.254Z,56.60
2018-01-12T02:17:57.505Z,57.50
2018-01-12T02:20:24.545Z,58.33
2018-01-12T02:22:51.573Z,57.43
2018-01-12T02:25:17.845Z,59.60
2018-01-12T02:27:44.078Z,58.17
2018-01-12T02:30:10.355Z,59.40
2018-01-12T02:32:36.612Z,57.47
2018-01-12T02:35:03.661Z,57.30
2018-01-12T02:37:30.658Z,58.77
2018-01-12T02:39:56.924Z,58.00
2018-01-12T02:42:23.917Z,58.47
2018-01-12T02:44:50.206Z,56.33
2018-01-12T02:47:16.501Z,57.17
2018-01-12T02:49:42.752Z,60.53
2018-01-12T02:52:09.008Z,57.97
2018-01-12T02:54:35.262Z,54.80
2018-01-12T02:57:01.526Z,55.83
2018-01-12T02:59:27.728Z,56.87
2018-01-12T03:01:53.964Z,56.90
2018-01-12T03:04:20.248Z,60.73
2018-01-12T03:06:46.499Z,56.80
2018-01-12T03:09:12.710Z,60.20
2018-01-12T03:11:38.989Z,58.87
2018-01-12T03:14:05.245Z,59.20
2018-01-12T03:16:31.517Z,59.27
2018-01-12T03:18:57.772Z,53.77
2018-01-12T03:21:24.030Z,56.67
2018-01-12T03:23:51.023Z,56.20
2018-01-12T03:26:17.240Z,56.60
2018-01-12T03:28:43.499Z,58.33
2018-01-12T03:31:09.740Z,58.50
2018-01-12T03:33:36.774Z,56.27
2018-01-12T03:36:03.059Z,56.53
2018-01-12T03:38:29.318Z,63.37
2018-01-12T03:40:55.562Z,59.07
2018-01-12T03:43:21.825Z,57.90
2018-01-12T03:45:48.849Z,54.33
2018-01-12T03:48:15.884Z,55.50
2018-01-12T03:50:42.120Z,57.83
2018-01-12T03:53:08.417Z,58.90
2018-01-12T03:55:34.689Z,55.80
2018-01-12T03:58:01.680Z,58.40
2018-01-12T04:00:27.935Z,58.40
2018-01-12T04:02:54.165Z,57.07
2018-01-12T04:05:27.374Z,57.13
2018-01-12T04:07:53.615Z,54.93
2018-01-12T04:10:20.617Z,54.33
2018-01-12T04:12:46.862Z,58.77
2018-01-12T04:15:13.148Z,55.27
2018-01-12T04:17:39.398Z,60.40
2018-01-12T04:20:05.650Z,56.90
2018-01-12T04:22:31.913Z,55.60
2018-01-12T04:24:58.182Z,55.57
2018-01-12T04:27:24.420Z,52.90
2018-01-12T04:29:50.637Z,56.10
2018-01-12T04:32:16.904Z,53.50
2018-01-12T04:34:43.152Z,49.90
2018-01-12T04:37:09.414Z,51.40
2018-01-12T04:39:35.686Z,52.53
2018-01-12T04:42:01.953Z,52.67
2018-01-12T04:44:28.173Z,50.00
2018-01-12T04:46:54.457Z,50.80
2018-01-12T04:49:20.728Z,51.23
2018-01-12T04:51:47.714Z,48.87
2018-01-12T04:54:13.951Z,50.27
2018-01-12T04:56:40.185Z,49.50
2018-01-12T04:59:06.533Z,49.40
2018-01-12T05:01:33.517Z,50.37
2018-01-12T05:03:59.802Z,50.10
2018-01-12T05:06:26.062Z,48.17
2018-01-12T05:08:53.054Z,48.27
2018-01-12T05:11:19.316Z,46.73
2018-01-12T05:13:46.317Z,42.93
2018-01-12T05:16:12.662Z,42.87
2018-01-12T05:18:38.935Z,44.00
2018-01-12T05:21:06.002Z,46.53
2018-01-12T05:23:32.240Z,46.57
2018-01-12T05:25:58.570Z,43.97
2018-01-12T05:28:24.796Z,46.10
2018-01-12T05:30:51.071Z,44.90
2018-01-12T05:33:17.358Z,43.83
2018-01-12T05:35:43.630Z,42.77
2018-01-12T05:38:09.869Z,45.90
2018-01-12T05:40:36.884Z,45.13
2018-01-12T05:43:03.132Z,46.47
2018-01-12T05:45:29.403Z,44.50
2018-01-12T05:47:55.697Z,42.50
2018-01-12T05:50:21.942Z,46.20
2018-01-12T05:52:48.207Z,43.20
2018-01-12T05:55:14.454Z,44.00
2018-01-12T05:57:40.752Z,46.97
2018-01-12T06:00:07.010Z,44.17
2018-01-12T06:02:45.481Z,42.87
2018-01-12T06:05:24.878Z,38.97
2018-01-12T06:07:51.093Z,42.57
2018-01-12T06:10:17.373Z,41.90
2018-01-12T06:12:43.619Z,44.10
2018-01-12T06:15:09.974Z,44.03
2018-01-12T06:17:36.230Z,39.73
2018-01-12T06:20:02.510Z,40.73
2018-01-12T06:22:29.592Z,39.50
2018-01-12T06:24:55.886Z,41.87
2018-01-12T06:27:22.152Z,41.67
2018-01-12T06:29:48.514Z,38.60
2018-01-12T06:32:14.764Z,37.23
2018-01-12T06:34:41.053Z,38.07
2018-01-12T06:37:07.301Z,40.70
2018-01-12T06:39:34.287Z,37.27
2018-01-12T06:42:00.530Z,40.10
2018-01-12T06:44:26.774Z,40.27
2018-01-12T06:46:53.046Z,37.40
2018-01-12T06:49:19.268Z,35.17
2018-01-12T06:51:46.243Z,35.83
2018-01-12T06:54:12.498Z,35.23
2018-01-12T06:56:38.762Z,35.50
2018-01-12T06:59:05.784Z,33.30
2018-01-12T07:01:32.149Z,35.00
2018-01-12T07:03:59.182Z,32.37
2018-01-12T07:06:25.426Z,34.30
2018-01-12T07:08:52.405Z,34.60
2018-01-12T07:11:18.658Z,34.53
2018-01-12T07:13:44.934Z,34.03
2018-01-12T07:16:11.169Z,34.07
2018-01-12T07:18:37.403Z,33.07
2018-01-12T07:21:16.015Z,32.97
2018-01-12T07:23:45.224Z,33.30
2018-01-12T07:26:11.477Z,31.23
2018-01-12T07:28:37.680Z,33.10
2018-01-12T07:31:03.951Z,33.73
2018-01-12T07:33:30.217Z,33.57
2018-01-12T07:35:56.522Z,33.97
2018-01-12T07:38:23.497Z,34.70
2018-01-12T07:40:49.757Z,30.60
2018-01-12T07:43:15.994Z,33.90
2018-01-12T07:45:42.232Z,31.83
2018-01-12T07:48:08.570Z,34.27
2018-01-12T07:50:34.858Z,32.80
2018-01-12T07:53:07.341Z,34.90
2018-01-12T07:55:33.578Z,32.97
2018-01-12T07:57:59.828Z,32.53
2018-01-12T08:00:32.093Z,32.70
2018-01-12T08:03:03.248Z,34.10
2018-01-12T08:05:29.526Z,34.13
2018-01-12T08:07:55.807Z,33.93
2018-01-12T08:10:22.056Z,31.90
2018-01-12T08:12:49.458Z,34.20
2018-01-12T08:15:15.994Z,34.87
2018-01-12T08:17:42.282Z,33.07
2018-01-12T08:20:09.277Z,33.10
2018-01-12T08:22:35.547Z,35.00
2018-01-12T08:25:02.622Z,32.40
2018-01-12T08:27:28.873Z,32.77
2018-01-12T08:29:55.156Z,31.50
2018-01-12T08:32:21.458Z,31.47
2018-01-12T08:34:47.736Z,34.00
2018-01-12T08:37:13.990Z,32.90
2018-01-12T08:39:40.302Z,33.43
2018-01-12T08:42:06.553Z,33.47
2018-01-12T08:44:32.833Z,32.07
2018-01-12T08:46:59.045Z,31.93
2018-01-12T08:49:25.289Z,33.10
2018-01-12T08:51:52.197Z,33.00
2018-01-12T08:54:18.463Z,32.97
2018-01-12T08:56:45.532Z,30.97
2018-01-12T08:59:11.794Z,33.87
2018-01-12T09:01:38.046Z,34.30
2018-01-12T09:04:05.067Z,33.20
2018-01-12T09:06:31.375Z,32.07
2018-01-12T09:08:57.616Z,33.97
2018-01-12T09:11:23.949Z,33.57
2018-01-12T09:13:55.340Z,33.67
2018-01-12T09:16:26.840Z,35.73
2018-01-12T09:19:05.873Z,33.80
2018-01-12T09:21:36.061Z,35.30
2018-01-12T09:24:08.516Z,34.03
2018-01-12T09:26:34.772Z,34.47
2018-01-12T09:29:01.149Z,34.50
2018-01-12T09:31:38.542Z,33.33
2018-01-12T09:34:18.061Z,33.70
2018-01-12T09:36:45.090Z,34.93
2018-01-12T09:39:11.381Z,30.87
2018-01-12T09:41:38.433Z,33.90
2018-01-12T09:44:05.513Z,35.90
2018-01-12T09:46:31.797Z,33.07
2018-01-12T09:48:58.279Z,32.30
2018-01-12T09:51:24.545Z,33.23
2018-01-12T09:53:50.864Z,33.37
2018-01-12T09:56:17.224Z,33.90
2018-01-12T09:58:44.261Z,32.73
2018-01-12T10:01:20.337Z,36.03
2018-01-12T10:03:46.734Z,33.73
2018-01-12T10:06:13.178Z,32.07
2018-01-12T10:08:40.245Z,31.93
2018-01-12T10:11:07.307Z,33.50
2018-01-12T10:13:33.624Z,34.77
2018-01-12T10:16:00.679Z,33.57
2018-01-12T10:18:33.900Z,33.73
2018-01-12T10:21:06.363Z,29.70
2018-01-12T10:23:34.714Z,33.90
2018-01-12T10:26:01.046Z,32.90
2018-01-12T10:28:28.138Z,33.07
2018-01-12T10:30:58.203Z,33.23
2018-01-12T10:47:22.202Z,31.30
2018-01-12T10:52:57.973Z,33.27
2018-01-12T10:55:24.289Z,32.70
2018-01-12T10:57:50.590Z,32.93
2018-01-12T11:00:30.066Z,33.73
2018-01-12T11:02:57.108Z,32.07
2018-01-12T11:05:23.346Z,32.20
2018-01-12T11:07:49.606Z,33.20
2018-01-12T11:10:15.859Z,32.47
2018-01-12T11:12:42.879Z,31.70
2018-01-12T11:15:09.116Z,33.73
2018-01-12T11:17:35.433Z,32.90
2018-01-12T11:20:01.685Z,37.23
2018-01-12T11:22:29.753Z,33.33
2018-01-12T11:24:56.981Z,30.50
2018-01-12T11:27:24.403Z,30.87
2018-01-12T11:29:50.772Z,31.67
2018-01-12T11:32:17.867Z,34.70
2018-01-12T11:34:44.222Z,33.50
2018-01-12T11:37:10.505Z,35.10
2018-01-12T11:39:37.777Z,32.50
2018-01-12T11:42:04.072Z,34.10
2018-01-12T11:44:30.344Z,33.73
2018-01-12T11:46:56.647Z,32.40
2018-01-12T11:49:23.662Z,32.67
2018-01-12T11:51:56.153Z,32.60
2018-01-12T11:54:23.028Z,33.10
2018-01-12T11:56:49.254Z,32.03
2018-01-12T11:59:15.498Z,35.17
2018-01-12T12:01:41.817Z,33.50
2018-01-12T12:04:08.128Z,35.40
2018-01-12T12:06:34.732Z,32.77
2018-01-12T12:09:01.861Z,34.47
2018-01-12T12:11:28.767Z,34.43
2018-01-12T12:13:55.778Z,34.30
2018-01-12T12:16:22.234Z,37.37
2018-01-12T12:18:49.233Z,37.07
2018-01-12T12:21:15.734Z,33.50
2018-01-12T12:23:42.801Z,34.57
2018-01-12T12:26:09.077Z,35.00
2018-01-12T12:28:35.312Z,35.33
2018-01-12T12:31:01.599Z,34.87
2018-01-12T12:33:27.817Z,35.87
2018-01-12T12:35:54.089Z,32.70
2018-01-12T12:38:20.495Z,33.87
2018-01-12T12:40:46.749Z,35.23
2018-01-12T12:43:13.029Z,36.40
2018-01-12T12:45:39.288Z,36.67
2018-01-12T12:48:06.526Z,35.53
2018-01-12T12:50:32.808Z,33.73
2018-01-12T12:52:59.118Z,33.47
2018-01-12T12:55:26.114Z,36.30
2018-01-12T12:57:52.364Z,36.47
2018-01-12T13:00:18.618Z,34.40
2018-01-12T13:02:44.883Z,38.03
2018-01-12T13:05:11.116Z,34.70
2018-01-12T13:07:37.590Z,34.03
2018-01-12T13:10:03.958Z,35.67
2018-01-12T13:12:31.086Z,34.77
2018-01-12T13:14:57.478Z,35.07
2018-01-12T13:17:23.847Z,35.50
2018-01-12T13:19:52.841Z,36.77
2018-01-12T13:22:19.102Z,35.60
2018-01-12T13:24:46.064Z,35.27
2018-01-12T13:27:12.317Z,36.50
2018-01-12T13:29:39.522Z,35.43
2018-01-12T13:32:06.497Z,33.77
2018-01-12T13:34:32.865Z,36.03
2018-01-12T13:37:00.826Z,35.50
2018-01-12T13:39:27.226Z,35.73
2018-01-12T13:41:53.451Z,34.50
2018-01-12T13:44:19.890Z,34.67
2018-01-12T13:46:47.350Z,33.20
2018-01-12T13:49:15.375Z,35.37
2018-01-12T13:51:44.237Z,35.57
2018-01-12T13:54:10.543Z,34.73
2018-01-12T13:56:36.884Z,36.17
2018-01-12T13:59:03.231Z,36.30
2018-01-12T14:01:29.552Z,34.20
2018-01-12T14:03:55.835Z,34.93
2018-01-12T14:06:22.784Z,35.57
2018-01-12T14:08:49.089Z,36.50
2018-01-12T14:11:16.298Z,33.90
2018-01-12T14:13:42.673Z,34.73
2018-01-12T14:16:09.885Z,34.77
2018-01-12T14:18:36.901Z,33.57
2018-01-12T14:21:03.317Z,32.87
2018-01-12T14:23:29.619Z,34.07
2018-01-12T14:25:55.901Z,35.40
2018-01-12T14:28:22.192Z,32.67
2018-01-12T14:30:49.312Z,35.60
2018-01-12T14:33:15.714Z,35.40
2018-01-12T14:35:41.953Z,37.43
2018-01-12T14:38:08.228Z,34.27
2018-01-12T14:40:35.375Z,34.77
2018-01-12T14:43:02.454Z,33.47
2018-01-12T14:45:28.708Z,32.77
2018-01-12T14:47:55.023Z,32.57
2018-01-12T14:50:21.674Z,33.40
2018-01-12T14:52:48.430Z,35.37
2018-01-12T14:55:15.643Z,33.07
2018-01-12T14:57:42.007Z,36.10
2018-01-12T15:00:08.280Z,35.90
2018-01-12T15:02:35.270Z,35.97
2018-01-12T15:05:01.518Z,36.47
2018-01-12T15:07:27.737Z,36.20
2018-01-12T15:09:54.865Z,37.03
2018-01-12T15:12:21.298Z,37.10
2018-01-12T15:14:47.551Z,37.50
2018-01-12T15:17:13.797Z,37.60
2018-01-12T15:19:40.097Z,40.20
2018-01-12T15:22:07.150Z,38.27
2018-01-12T15:24:33.372Z,36.30
2018-01-12T15:26:59.997Z,36.90
2018-01-12T15:29:26.277Z,37.50
2018-01-12T15:31:53.310Z,40.57
2018-01-12T15:34:19.551Z,37.27
2018-01-12T15:36:46.575Z,39.27
2018-01-12T15:39:12.811Z,39.07
2018-01-12T15:41:39.168Z,38.87
2018-01-12T15:44:06.233Z,40.73
2018-01-12T15:46:32.491Z,40.37
2018-01-12T15:48:58.921Z,40.10
2018-01-12T15:51:25.948Z,40.43
2018-01-12T15:53:52.213Z,40.90
2018-01-12T15:56:18.482Z,41.23
2018-01-12T15:58:45.520Z,41.30
2018-01-12T16:01:12.500Z,41.60
2018-01-12T16:03:38.823Z,43.97
2018-01-12T16:06:07.434Z,43.00
2018-01-12T16:08:33.848Z,40.80
2018-01-12T16:11:00.180Z,41.10
2018-01-12T16:13:26.564Z,42.50
2018-01-12T16:15:53.707Z,42.77
2018-01-12T16:18:20.910Z,42.17
2018-01-12T16:20:47.408Z,44.43
2018-01-12T16:23:15.503Z,42.63
2018-01-12T16:25:41.755Z,43.67
2018-01-12T16:28:08.066Z,45.10
2018-01-12T16:30:34.348Z,44.53
2018-01-12T16:33:01.449Z,43.73
2018-01-12T16:35:27.688Z,42.87
2018-01-12T16:37:54.075Z,44.90
2018-01-12T16:40:21.082Z,45.60
2018-01-12T16:42:57.065Z,45.00
2018-01-12T16:45:24.094Z,46.17
2018-01-12T16:47:51.386Z,44.73
2018-01-12T16:50:19.535Z,44.17
2018-01-12T16:52:45.889Z,45.33
2018-01-12T16:55:12.921Z,47.67
2018-01-12T16:57:39.974Z,43.40
2018-01-12T17:00:06.309Z,43.73
2018-01-12T17:02:33.365Z,44.60
2018-01-12T17:05:00.513Z,44.50
2018-01-12T17:07:27.650Z,43.20
2018-01-12T17:09:54.748Z,42.80
2018-01-12T17:12:21.236Z,42.37
2018-01-12T17:14:48.327Z,42.13
2018-01-12T17:17:15.889Z,40.73
2018-01-12T17:19:44.235Z,43.07
2018-01-12T17:22:10.541Z,42.97
2018-01-12T17:24:37.682Z,41.67
2018-01-12T17:27:04.842Z,44.27
2018-01-12T17:29:31.145Z,42.10
2018-01-12T17:31:57.614Z,44.40
2018-01-12T17:34:24.365Z,44.00
2018-01-12T17:36:50.597Z,42.47
2018-01-12T17:39:18.535Z,43.73
2018-01-12T17:41:44.823Z,40.50
2018-01-12T17:44:11.090Z,41.60
2018-01-12T17:46:38.175Z,38.40
2018-01-12T17:49:04.454Z,39.60
2018-01-12T17:51:33.248Z,39.87
2018-01-12T17:53:59.547Z,40.37
2018-01-12T17:56:25.835Z,40.93
2018-01-12T17:58:53.586Z,40.40
2018-01-12T18:01:20.924Z,40.23
2018-01-12T18:03:47.172Z,40.87
2018-01-12T18:06:14.200Z,42.17
2018-01-12T18:08:40.436Z,40.60
2018-01-12T18:11:10.515Z,40.00
2018-01-12T18:13:36.876Z,38.90
2018-01-12T18:16:03.993Z,38.27
2018-01-12T18:18:38.099Z,37.30
2018-01-12T18:21:05.009Z,37.93
2018-01-12T18:23:31.993Z,39.40
2018-01-12T18:25:58.268Z,39.40
2018-01-12T18:28:25.271Z,38.07
2018-01-12T18:30:51.491Z,40.60
2018-01-12T18:33:17.731Z,63.10
2018-01-12T18:35:44.085Z,41.40
2018-01-12T18:38:10.383Z,39.97
2018-01-12T18:40:37.045Z,40.40
2018-01-12T18:43:03.569Z,37.80
2018-01-12T18:45:29.951Z,39.03
2018-01-12T18:47:56.313Z,36.63
2018-01-12T18:50:22.583Z,40.10
2018-01-12T18:52:49.739Z,38.27
2018-01-12T18:55:16.192Z,40.97
2018-01-12T18:57:42.624Z,41.37
2018-01-12T19:00:09.093Z,40.07
2018-01-12T19:02:35.477Z,39.27
2018-01-12T19:05:01.780Z,40.80
2018-01-12T19:07:28.086Z,43.10
2018-01-12T19:09:54.404Z,40.77
2018-01-12T19:12:20.684Z,42.60
2018-01-12T19:14:48.695Z,44.97
2018-01-12T19:17:20.173Z,42.83
2018-01-12T19:19:47.436Z,43.30
2018-01-12T19:22:14.475Z,45.27
2018-01-12T19:24:40.768Z,43.83
2018-01-12T19:27:07.037Z,42.40
2018-01-12T19:29:33.354Z,42.93
2018-01-12T19:32:00.075Z,43.80
2018-01-12T19:34:26.361Z,46.37
2018-01-12T19:36:57.613Z,45.17
2018-01-12T19:39:23.915Z,46.13
2018-01-12T19:41:50.135Z,44.73
2018-01-12T19:44:17.103Z,44.60
2018-01-12T19:46:43.298Z,44.57
2018-01-12T19:49:09.546Z,45.07
2018-01-12T19:51:35.773Z,44.37
2018-01-12T19:54:02.204Z,46.50
2018-01-12T19:56:28.443Z,44.87
2018-01-12T19:58:55.959Z,47.67
2018-01-12T20:01:22.323Z,45.37
2018-01-12T20:03:48.937Z,45.40
2018-01-12T20:06:15.216Z,46.20
2018-01-12T20:08:41.579Z,45.40
2018-01-12T20:11:07.862Z,47.50
2018-01-12T20:13:36.160Z,46.17
2018-01-12T20:16:03.108Z,45.37
2018-01-12T20:18:41.136Z,45.10
2018-01-12T20:21:14.677Z,44.77
2018-01-12T20:23:40.976Z,54.50
2018-01-12T20:26:07.555Z,43.47
2018-01-12T20:28:35.071Z,46.13
2018-01-12T20:31:03.054Z,46.43
2018-01-12T20:33:30.163Z,48.00
2018-01-12T20:35:56.620Z,47.30
2018-01-12T20:38:23.133Z,47.17
2018-01-12T20:40:49.582Z,44.53
2018-01-12T20:43:15.989Z,48.20
2018-01-12T20:45:42.352Z,46.47
2018-01-12T20:48:08.784Z,46.37
2018-01-12T20:50:35.089Z,47.07
2018-01-12T20:53:01.467Z,49.10
2018-01-12T20:55:28.549Z,50.60
2018-01-12T20:57:55.660Z,49.77
2018-01-12T21:00:22.019Z,51.10
2018-01-12T21:02:48.405Z,50.73
2018-01-12T21:05:14.743Z,51.13
2018-01-12T21:07:41.149Z,49.90
2018-01-12T21:10:08.852Z,51.43
2018-01-12T21:12:35.237Z,50.13
2018-01-12T21:15:01.672Z,48.60
2018-01-12T21:17:28.076Z,49.67
2018-01-12T21:19:54.491Z,49.37
2018-01-12T21:22:20.875Z,48.27
2018-01-12T21:27:24.378Z,48.97
2018-01-12T21:29:58.409Z,47.83
2018-01-12T21:32:29.158Z,45.47
2018-01-12T21:34:58.683Z,47.97
2018-01-12T21:37:31.951Z,50.50
2018-01-12T21:40:01.435Z,51.17
2018-01-12T21:42:30.329Z,51.30
2018-01-12T21:44:56.624Z,51.20
2018-01-12T21:47:24.957Z,48.47
2018-01-12T21:49:55.316Z,51.03
2018-01-12T21:52:21.805Z,48.57
2018-01-12T21:54:48.727Z,47.43
2018-01-12T21:57:15.012Z,51.13
2018-01-12T21:59:42.023Z,51.43
2018-01-12T22:02:10.541Z,50.30
2018-01-12T22:04:42.178Z,48.87
2018-01-12T22:07:12.019Z,48.33
2018-01-12T22:09:40.013Z,47.10
2018-01-12T22:12:06.964Z,47.37
2018-01-12T22:14:36.351Z,46.07
2018-01-12T22:17:03.364Z,45.00
2018-01-12T22:19:30.117Z,45.07
2018-01-12T22:21:57.538Z,47.03
2018-01-12T22:24:24.465Z,45.20
2018-01-12T22:26:50.775Z,47.37
2018-01-12T22:29:18.817Z,48.17
2018-01-12T22:31:46.167Z,47.87
2018-01-12T22:34:12.619Z,46.67
2018-01-12T22:36:38.885Z,48.13
2018-01-12T22:39:05.215Z,48.20
2018-01-12T22:41:31.434Z,44.77
2018-01-12T22:43:57.751Z,46.17
2018-01-12T22:46:23.994Z,46.00
2018-01-12T22:48:50.283Z,46.33
2018-01-12T22:51:16.538Z,43.00
2018-01-12T22:53:42.835Z,46.90
2018-01-12T22:56:09.165Z,47.37
2018-01-12T22:58:37.403Z,44.30
2018-01-12T23:01:03.972Z,46.83
2018-01-12T23:03:36.738Z,45.80
2018-01-12T23:06:03.042Z,45.20
2018-01-12T23:08:29.370Z,45.47
2018-01-12T23:10:55.629Z,45.73
2018-01-12T23:13:21.886Z,44.57
2018-01-12T23:15:48.172Z,45.70
2018-01-12T23:18:14.386Z,46.10
2018-01-12T23:20:40.641Z,46.70
2018-01-12T23:23:06.905Z,47.60
2018-01-12T23:25:33.149Z,46.10
2018-01-12T23:27:59.515Z,47.53
2018-01-12T23:30:25.810Z,46.37
2018-01-12T23:32:52.634Z,47.40
2018-01-12T23:35:19.166Z,47.40
2018-01-12T23:37:52.926Z,44.80
2018-01-12T23:40:19.196Z,49.00
2018-01-12T23:42:46.226Z,50.10
2018-01-12T23:45:13.200Z,49.17
2018-01-12T23:47:39.506Z,50.40
2018-01-12T23:50:06.469Z,47.73
2018-01-12T23:52:32.793Z,50.03
2018-01-12T23:54:59.187Z,48.33
2018-01-12T23:57:25.757Z,48.27
2018-01-12T23:59:52.350Z,46.63
